createdAt,value
2018-09-15T00:06:28.725Z,1008.1
2018-09-15T00:16:30.540Z,1008
2018-09-15T00:26:32.474Z,1008.1
2018-09-15T00:36:34.479Z,1008
2018-09-15T00:46:36.437Z,1008
2018-09-15T00:56:38.572Z,1008.2
2018-09-15T01:06:40.150Z,1008.2
2018-09-15T01:16:42.281Z,1008.1
2018-09-15T01:26:43.805Z,1008.1
2018-09-15T01:36:45.491Z,1008.1
2018-09-15T01:46:47.350Z,1008.1
2018-09-15T01:56:49.367Z,1008.1
2018-09-15T02:06:51.252Z,1008.1
2018-09-15T02:16:53.143Z,1008
2018-09-15T02:26:55.023Z,1008
2018-09-15T02:36:56.941Z,1008
2018-09-15T02:46:58.795Z,1008.1
2018-09-15T02:57:01.201Z,1008.2
2018-09-15T03:07:02.704Z,1008.2
2018-09-15T03:17:04.470Z,1008.2
2018-09-15T03:27:06.191Z,1008.3
2018-09-15T03:37:08.108Z,1008.3
2018-09-15T03:47:09.854Z,1008.3
2018-09-15T03:57:12.336Z,1008.3
2018-09-15T04:07:14.155Z,1008.4
2018-09-15T04:17:15.587Z,1008.5
2018-09-15T04:27:17.315Z,1008.6
2018-09-15T04:37:19.276Z,1008.6
2018-09-15T04:47:21.567Z,1008.6
2018-09-15T04:57:23.598Z,1008.7
2018-09-15T05:07:25.794Z,1008.8
2018-09-15T05:17:27.545Z,1009
2018-09-15T05:27:29.231Z,1009
2018-09-15T05:37:31.353Z,1009
2018-09-15T05:47:32.822Z,1009.1
2018-09-15T05:57:34.838Z,1009.2
2018-09-15T06:07:36.844Z,1009.2
2018-09-15T06:17:38.442Z,1009.3
2018-09-15T06:27:40.243Z,1009.2
2018-09-15T06:37:42.624Z,1009.4
2018-09-15T06:47:44.997Z,1009.4
2018-09-15T06:57:46.917Z,1009.6
2018-09-15T07:07:54.854Z,1009.7
2018-09-15T07:17:57.297Z,1010
2018-09-15T07:38:02.797Z,1010.2
2018-09-15T07:48:14.049Z,1010.1
2018-09-15T07:58:16.258Z,1010.3
2018-09-15T08:08:17.670Z,1010.2
2018-09-15T08:18:23.229Z,1010.2
2018-09-15T08:28:25.838Z,1010.2
2018-09-15T08:38:28.057Z,1010.3
2018-09-15T08:48:29.712Z,1010.4
2018-09-15T08:58:31.970Z,1010.5
2018-09-15T09:08:33.427Z,1010.6
2018-09-15T09:18:35.777Z,1010.6
2018-09-15T09:28:37.956Z,1010.6
2018-09-15T11:30:13.663Z,1010.8
2018-09-15T11:40:06.765Z,1010.8
2018-09-15T11:50:07.787Z,1010.8
2018-09-15T12:00:09.804Z,1010.8
2018-09-15T12:10:11.541Z,1010.8
2018-09-15T12:20:13.221Z,1010.8
2018-09-15T12:30:14.891Z,1010.7
2018-09-15T12:40:16.926Z,1011
2018-09-15T12:50:18.590Z,1010.9
2018-09-15T13:00:21.067Z,1011
2018-09-15T13:10:23.167Z,1011
2018-09-15T13:15:54.178Z,1011
2018-09-15T13:16:18.028Z,1011.1
2018-09-15T13:26:18.478Z,1011
2018-09-15T13:36:20.422Z,1011.1
2018-09-15T13:39:13.052Z,1011.1
2018-09-15T13:49:13.840Z,1011.1
2018-09-15T13:59:15.762Z,1011.1
2018-09-15T14:09:17.773Z,1011.2
2018-09-15T14:19:20.919Z,1011.1
2018-09-15T14:29:22.883Z,1011.2
2018-09-15T14:39:24.260Z,1011.3
2018-09-15T14:49:26.195Z,1011.4
2018-09-15T14:59:28.095Z,1011.3
2018-09-15T15:09:29.746Z,1011.3
2018-09-15T15:19:31.407Z,1011.3
2018-09-15T15:29:33.964Z,1011.3
2018-09-15T15:39:36.058Z,1011.3
2018-09-15T15:49:37.750Z,1011.2
2018-09-15T15:59:40.053Z,1011.3
2018-09-15T16:09:41.894Z,1011.4
2018-09-15T16:19:44.050Z,1011.4
2018-09-15T16:29:45.776Z,1011.5
2018-09-15T16:39:47.715Z,1011.5
2018-09-15T16:49:49.902Z,1011.5
2018-09-15T16:59:52.141Z,1011.5
2018-09-15T17:09:53.901Z,1011.5
2018-09-15T17:19:55.628Z,1011.6
2018-09-15T17:29:57.153Z,1011.6
2018-09-15T17:39:59.284Z,1011.7
2018-09-15T17:50:01.105Z,1011.8
2018-09-15T18:00:02.948Z,1011.8
2018-09-15T18:10:04.863Z,1011.9
2018-09-15T18:20:06.674Z,1011.9
2018-09-15T18:30:08.922Z,1012.1
2018-09-15T18:40:10.215Z,1012.1
2018-09-15T18:50:12.495Z,1012.2
2018-09-15T19:00:14.394Z,1012.2
2018-09-15T19:10:15.900Z,1012.4
2018-09-15T19:20:17.672Z,1012.4
2018-09-15T19:30:19.639Z,1012.4
2018-09-15T19:40:21.444Z,1012.5
2018-09-15T19:50:23.594Z,1012.6
2018-09-15T20:00:25.331Z,1012.6
2018-09-15T20:10:27.587Z,1012.7
2018-09-15T20:20:29.721Z,1012.7
2018-09-15T20:30:31.158Z,1012.7
2018-09-15T20:40:33.193Z,1012.8
2018-09-15T20:50:34.780Z,1012.7
2018-09-15T21:00:36.361Z,1012.8
2018-09-15T21:10:38.478Z,1012.7
2018-09-15T21:20:40.201Z,1012.9
2018-09-15T21:30:41.776Z,1012.9
2018-09-15T21:40:43.749Z,1012.9
2018-09-15T21:50:45.632Z,1012.9
2018-09-15T22:00:47.439Z,1012.9
2018-09-15T22:10:49.377Z,1012.9
2018-09-15T22:20:51.179Z,1013
2018-09-15T22:30:52.757Z,1013
2018-09-15T22:40:54.290Z,1013
2018-09-15T22:50:56.062Z,1013
2018-09-15T23:00:58.007Z,1012.9
2018-09-15T23:10:59.666Z,1013
2018-09-15T23:21:01.352Z,1012.9
2018-09-15T23:31:03.665Z,1012.9
2018-09-15T23:41:05.519Z,1012.8
2018-09-15T23:51:07.480Z,1012.8
